createdAt,value
2018-05-17T00:01:51.108Z,42.57
2018-05-17T00:04:18.577Z,38.50
2018-05-17T00:06:46.054Z,43.10
2018-05-17T00:09:13.528Z,40.80
2018-05-17T00:11:41.005Z,45.50
2018-05-17T00:14:08.500Z,40.77
2018-05-17T00:16:35.966Z,42.10
2018-05-17T00:19:03.450Z,36.33
2018-05-17T00:21:30.921Z,33.20
2018-05-17T00:23:58.395Z,39.22
2018-05-17T00:26:25.892Z,38.17
2018-05-17T00:28:53.372Z,37.30
2018-05-17T00:31:20.863Z,40.10
2018-05-17T00:33:48.333Z,42.67
2018-05-17T00:36:15.797Z,34.93
2018-05-17T00:38:43.290Z,35.83
2018-05-17T00:41:10.767Z,37.57
2018-05-17T00:43:38.258Z,41.58
2018-05-17T00:46:05.731Z,39.50
2018-05-17T00:48:33.222Z,44.43
2018-05-17T00:51:00.692Z,45.10
2018-05-17T00:53:32.102Z,43.60
2018-05-17T00:55:59.587Z,45.85
2018-05-17T00:58:27.054Z,48.17
2018-05-17T01:00:54.545Z,48.53
2018-05-17T01:03:22.009Z,46.27
2018-05-17T01:05:49.510Z,43.10
2018-05-17T01:08:16.977Z,40.93
2018-05-17T01:10:44.457Z,43.55
2018-05-17T01:13:11.935Z,43.67
2018-05-17T01:15:39.399Z,42.63
2018-05-17T01:18:06.879Z,39.35
2018-05-17T01:20:34.347Z,44.73
2018-05-17T01:23:01.848Z,42.17
2018-05-17T01:25:29.336Z,44.93
2018-05-17T01:27:56.821Z,45.77
2018-05-17T01:30:24.305Z,51.33
2018-05-17T01:32:51.772Z,43.53
2018-05-17T01:35:19.251Z,62.17
2018-05-17T01:37:58.340Z,50.35
2018-05-17T01:40:25.816Z,53.23
2018-05-17T01:42:53.307Z,54.83
2018-05-17T01:45:20.779Z,52.20
2018-05-17T01:47:48.320Z,50.55
2018-05-17T01:50:15.797Z,74.83
2018-05-17T01:52:43.259Z,53.57
2018-05-17T01:55:10.754Z,66.63
2018-05-17T01:57:38.227Z,52.17
2018-05-17T02:00:05.721Z,56.90
2018-05-17T02:02:33.188Z,50.90
2018-05-17T02:05:00.656Z,54.80
2018-05-17T02:07:28.135Z,64.87
2018-05-17T02:09:55.608Z,56.10
2018-05-17T02:12:23.100Z,57.60
2018-05-17T02:14:50.572Z,63.43
2018-05-17T02:17:18.035Z,62.83
2018-05-17T02:19:45.520Z,55.35
2018-05-17T02:22:12.994Z,53.50
2018-05-17T02:24:40.944Z,55.63
2018-05-17T02:27:08.428Z,70.22
2018-05-17T02:29:36.173Z,61.77
2018-05-17T02:32:03.663Z,65.93
2018-05-17T02:34:31.141Z,58.90
2018-05-17T02:36:58.635Z,60.47
2018-05-17T02:39:26.125Z,59.23
2018-05-17T02:41:53.589Z,62.80
2018-05-17T02:44:21.079Z,69.82
2018-05-17T02:46:48.558Z,62.50
2018-05-17T02:49:16.177Z,55.42
2018-05-17T02:51:43.578Z,74.13
2018-05-17T02:54:11.049Z,62.27
2018-05-17T02:56:38.539Z,56.33
2018-05-17T02:59:06.017Z,54.60
2018-05-17T03:01:33.510Z,63.77
2018-05-17T03:04:00.984Z,51.77
2018-05-17T03:06:28.684Z,65.03
2018-05-17T03:08:56.153Z,47.60
2018-05-17T03:11:23.621Z,50.53
2018-05-17T03:13:51.112Z,58.67
2018-05-17T03:16:18.584Z,48.60
2018-05-17T03:18:46.070Z,47.87
2018-05-17T03:21:13.551Z,46.33
2018-05-17T03:23:41.047Z,47.27
2018-05-17T03:26:08.525Z,39.80
2018-05-17T03:28:35.997Z,41.57
2018-05-17T03:31:03.493Z,41.23
2018-05-17T03:33:30.953Z,42.33
2018-05-17T03:35:58.455Z,38.97
2018-05-17T03:38:25.939Z,36.90
2018-05-17T03:40:53.428Z,37.50
2018-05-17T03:43:20.936Z,35.85
2018-05-17T03:45:48.414Z,38.70
2018-05-17T03:48:16.382Z,34.10
2018-05-17T03:50:43.848Z,29.77
2018-05-17T03:53:11.329Z,25.83
2018-05-17T03:55:38.804Z,28.03
2018-05-17T03:58:06.272Z,29.73
2018-05-17T04:00:45.401Z,26.87
2018-05-17T04:03:24.580Z,35.00
2018-05-17T04:06:03.816Z,35.83
2018-05-17T04:08:31.316Z,31.20
2018-05-17T04:10:58.768Z,29.10
2018-05-17T04:13:26.281Z,29.07
2018-05-17T04:15:53.757Z,32.77
2018-05-17T04:18:21.253Z,32.67
2018-05-17T04:20:48.719Z,33.00
2018-05-17T04:23:16.184Z,30.50
2018-05-17T04:25:43.688Z,36.40
2018-05-17T04:28:11.239Z,33.00
2018-05-17T04:30:38.728Z,35.13
2018-05-17T04:33:06.192Z,44.17
2018-05-17T04:35:33.677Z,34.13
2018-05-17T04:38:01.160Z,41.93
2018-05-17T04:40:28.639Z,51.70
2018-05-17T04:42:56.124Z,42.60
2018-05-17T04:45:23.599Z,37.77
2018-05-17T04:47:51.064Z,39.10
2018-05-17T04:50:18.552Z,46.73
2018-05-17T04:52:46.024Z,34.37
2018-05-17T04:55:13.522Z,34.55
2018-05-17T04:57:40.991Z,39.85
2018-05-17T05:00:08.460Z,34.83
2018-05-17T05:02:36.266Z,38.53
2018-05-17T05:05:03.744Z,34.85
2018-05-17T05:07:31.240Z,34.95
2018-05-17T05:09:58.718Z,43.53
2018-05-17T05:12:26.875Z,47.63
2018-05-17T05:14:54.486Z,40.57
2018-05-17T05:17:21.969Z,41.90
2018-05-17T05:19:49.463Z,40.90
2018-05-17T05:22:16.956Z,41.60
2018-05-17T05:24:44.432Z,39.28
2018-05-17T05:27:11.915Z,43.90
2018-05-17T05:29:39.384Z,42.57
2018-05-17T05:32:06.880Z,37.50
2018-05-17T05:34:34.360Z,40.30
2018-05-17T05:37:01.840Z,39.50
2018-05-17T05:39:29.765Z,38.60
2018-05-17T05:41:57.236Z,42.78
2018-05-17T05:44:24.733Z,43.87
2018-05-17T05:46:52.208Z,36.33
2018-05-17T05:49:19.744Z,35.90
2018-05-17T05:51:47.195Z,43.45
2018-05-17T05:54:14.666Z,37.20
2018-05-17T05:56:42.170Z,38.70
2018-05-17T05:59:09.642Z,33.77
2018-05-17T06:01:37.129Z,36.80
2018-05-17T06:04:04.610Z,35.45
2018-05-17T06:06:32.080Z,34.13
2018-05-17T06:08:59.573Z,37.10
2018-05-17T06:11:27.143Z,35.13
2018-05-17T06:13:54.554Z,32.50
2018-05-17T06:16:22.165Z,31.33
2018-05-17T06:18:49.635Z,35.58
2018-05-17T06:21:17.118Z,36.20
2018-05-17T06:23:44.635Z,38.13
2018-05-17T06:26:12.105Z,33.03
2018-05-17T06:28:39.576Z,35.07
2018-05-17T06:31:07.061Z,42.13
2018-05-17T06:33:35.329Z,37.25
2018-05-17T06:36:02.798Z,37.15
2018-05-17T06:38:30.283Z,32.70
2018-05-17T06:40:57.762Z,41.47
2018-05-17T06:43:25.255Z,36.07
2018-05-17T06:45:52.719Z,40.77
2018-05-17T06:48:20.211Z,34.53
2018-05-17T06:50:47.707Z,39.08
2018-05-17T06:53:15.169Z,35.53
2018-05-17T06:55:42.658Z,33.43
2018-05-17T06:58:10.126Z,33.77
2018-05-17T07:00:37.700Z,36.90
2018-05-17T07:03:05.107Z,33.43
2018-05-17T07:05:32.572Z,37.13
2018-05-17T07:08:00.055Z,33.40
2018-05-17T07:10:27.544Z,31.30
2018-05-17T07:12:55.028Z,35.33
2018-05-17T07:15:22.506Z,37.63
2018-05-17T07:17:50.018Z,35.23
2018-05-17T07:20:17.488Z,39.87
2018-05-17T07:22:44.951Z,39.60
2018-05-17T07:25:12.439Z,33.97
2018-05-17T07:27:39.924Z,33.03
2018-05-17T07:30:07.386Z,32.70
2018-05-17T07:32:34.875Z,34.83
2018-05-17T07:35:02.347Z,34.67
2018-05-17T07:37:29.840Z,34.37
2018-05-17T07:39:57.316Z,42.20
2018-05-17T07:42:24.788Z,42.75
2018-05-17T07:44:52.276Z,34.83
2018-05-17T07:47:19.751Z,34.27
2018-05-17T07:49:47.243Z,34.10
2018-05-17T07:52:14.799Z,34.17
2018-05-17T07:54:42.205Z,36.07
2018-05-17T07:57:09.696Z,35.38
2018-05-17T07:59:37.173Z,31.75
2018-05-17T08:02:04.660Z,27.70
2018-05-17T08:04:32.134Z,30.23
2018-05-17T08:06:59.611Z,28.60
2018-05-17T08:09:27.103Z,26.30
2018-05-17T08:11:54.577Z,27.45
2018-05-17T08:14:22.103Z,24.03
2018-05-17T08:16:50.472Z,28.42
2018-05-17T08:19:17.945Z,24.67
2018-05-17T08:21:45.442Z,33.60
2018-05-17T08:24:12.908Z,34.20
2018-05-17T08:26:40.408Z,27.25
2018-05-17T08:29:07.872Z,23.42
2018-05-17T08:31:35.340Z,22.77
2018-05-17T08:34:02.827Z,23.17
2018-05-17T08:36:30.374Z,20.75
2018-05-17T08:38:57.812Z,22.63
2018-05-17T08:41:25.276Z,21.37
2018-05-17T08:43:52.740Z,22.90
2018-05-17T08:46:20.241Z,24.40
2018-05-17T08:48:47.711Z,17.67
2018-05-17T08:51:15.229Z,23.20
2018-05-17T08:53:42.697Z,20.63
2018-05-17T08:56:10.174Z,21.57
2018-05-17T08:58:37.658Z,22.67
2018-05-17T09:01:05.129Z,20.75
2018-05-17T09:03:34.712Z,22.73
2018-05-17T09:06:02.171Z,20.97
2018-05-17T09:08:29.643Z,21.10
2018-05-17T09:10:57.577Z,19.97
2018-05-17T09:13:25.137Z,21.47
2018-05-17T09:15:52.574Z,18.60
2018-05-17T09:18:20.064Z,35.73
2018-05-17T09:20:47.535Z,21.60
2018-05-17T09:23:15.012Z,27.35
2018-05-17T09:25:42.492Z,20.47
2018-05-17T09:28:09.992Z,20.48
2018-05-17T09:30:37.466Z,24.20
2018-05-17T09:33:04.943Z,20.37
2018-05-17T09:35:32.443Z,20.58
2018-05-17T09:37:59.905Z,21.37
2018-05-17T09:40:27.374Z,24.00
2018-05-17T09:42:54.875Z,31.65
2018-05-17T09:45:22.348Z,22.43
2018-05-17T09:47:49.847Z,22.03
2018-05-17T09:50:17.327Z,24.10
2018-05-17T09:52:44.805Z,23.33
2018-05-17T09:55:12.525Z,25.88
2018-05-17T09:57:39.995Z,26.70
2018-05-17T10:00:07.459Z,26.43
2018-05-17T10:02:34.950Z,24.83
2018-05-17T10:05:02.420Z,25.40
2018-05-17T10:07:29.903Z,26.83
2018-05-17T10:09:57.373Z,25.30
2018-05-17T10:12:24.857Z,27.77
2018-05-17T10:14:52.348Z,25.80
2018-05-17T10:17:19.817Z,29.55
2018-05-17T10:19:47.309Z,26.08
2018-05-17T10:22:14.775Z,38.27
2018-05-17T10:24:42.233Z,22.87
2018-05-17T10:27:09.810Z,27.13
2018-05-17T10:29:37.287Z,29.37
2018-05-17T10:32:04.781Z,26.07
2018-05-17T10:34:32.256Z,28.17
2018-05-17T10:36:59.725Z,27.27
2018-05-17T10:39:27.204Z,27.53
2018-05-17T10:41:54.671Z,27.60
2018-05-17T10:44:22.157Z,28.27
2018-05-17T10:46:49.622Z,29.87
2018-05-17T10:49:17.084Z,28.00
2018-05-17T10:51:44.576Z,28.20
2018-05-17T10:54:12.048Z,30.50
2018-05-17T10:56:39.772Z,29.15
2018-05-17T10:59:07.240Z,26.70
2018-05-17T11:01:34.707Z,25.83
2018-05-17T11:04:03.015Z,26.05
2018-05-17T11:06:30.483Z,26.47
2018-05-17T11:08:57.974Z,29.27
2018-05-17T11:11:25.456Z,27.93
2018-05-17T11:13:52.943Z,25.13
2018-05-17T11:16:20.431Z,29.03
2018-05-17T11:18:47.904Z,28.57
2018-05-17T11:21:15.377Z,22.97
2018-05-17T11:23:42.868Z,27.70
2018-05-17T11:26:10.332Z,24.50
2018-05-17T11:28:37.817Z,23.53
2018-05-17T11:31:05.291Z,24.95
2018-05-17T11:33:32.764Z,27.10
2018-05-17T11:36:00.264Z,23.83
2018-05-17T11:38:27.776Z,23.83
2018-05-17T11:40:55.247Z,18.93
2018-05-17T11:43:22.714Z,18.33
2018-05-17T11:45:50.184Z,23.87
2018-05-17T11:48:17.695Z,20.83
2018-05-17T11:50:45.169Z,20.53
2018-05-17T11:53:13.041Z,21.80
2018-05-17T11:55:40.527Z,21.87
2018-05-17T11:58:07.997Z,20.05
2018-05-17T12:00:35.497Z,20.67
2018-05-17T12:03:02.971Z,26.27
2018-05-17T12:05:30.451Z,21.23
2018-05-17T12:07:57.919Z,29.13
2018-05-17T12:10:25.384Z,23.37
2018-05-17T12:12:52.883Z,19.80
2018-05-17T12:15:20.352Z,17.40
2018-05-17T12:17:47.856Z,19.20
2018-05-17T12:20:15.327Z,21.50
2018-05-17T12:22:42.802Z,16.77
2018-05-17T12:25:10.303Z,17.00
2018-05-17T12:27:37.779Z,20.58
2018-05-17T12:30:05.256Z,19.60
2018-05-17T12:32:32.743Z,22.87
2018-05-17T12:35:00.214Z,17.70
2018-05-17T12:37:27.707Z,17.80
2018-05-17T12:39:55.183Z,21.80
2018-05-17T12:42:22.648Z,19.13
2018-05-17T12:44:50.135Z,17.50
2018-05-17T12:47:17.610Z,17.43
2018-05-17T12:49:45.099Z,17.47
2018-05-17T12:52:12.579Z,20.10
2018-05-17T12:54:40.049Z,16.47
2018-05-17T12:57:07.545Z,15.20
2018-05-17T12:59:35.027Z,15.70
2018-05-17T13:02:02.520Z,15.80
2018-05-17T13:04:29.991Z,13.97
2018-05-17T13:06:57.540Z,13.10
2018-05-17T13:09:24.970Z,16.40
2018-05-17T13:11:52.453Z,14.17
2018-05-17T13:14:19.974Z,14.18
2018-05-17T13:16:47.451Z,13.60
2018-05-17T13:19:14.934Z,14.00
2018-05-17T13:21:42.416Z,16.33
2018-05-17T13:24:09.926Z,16.50
2018-05-17T13:26:37.411Z,13.27
2018-05-17T13:29:04.888Z,15.23
2018-05-17T13:31:32.360Z,15.17
2018-05-17T13:33:59.841Z,16.27
2018-05-17T13:36:27.312Z,16.23
2018-05-17T13:38:54.780Z,17.37
2018-05-17T13:41:22.263Z,18.13
2018-05-17T13:43:49.743Z,17.30
2018-05-17T13:46:17.223Z,16.77
2018-05-17T13:48:44.686Z,15.80
2018-05-17T13:51:12.164Z,20.10
2018-05-17T13:53:39.627Z,22.77
2018-05-17T13:56:07.093Z,21.50
2018-05-17T13:58:34.588Z,24.33
2018-05-17T14:01:02.049Z,24.80
2018-05-17T14:03:29.523Z,26.50
2018-05-17T14:05:56.999Z,24.77
2018-05-17T14:08:24.468Z,19.93
2018-05-17T14:10:51.959Z,21.63
2018-05-17T14:13:19.420Z,19.80
2018-05-17T14:15:46.893Z,24.07
2018-05-17T14:18:14.392Z,21.03
2018-05-17T14:20:41.865Z,24.20
2018-05-17T14:23:09.523Z,21.20
2018-05-17T14:25:37.084Z,18.70
2018-05-17T14:28:04.549Z,19.17
2018-05-17T14:30:33.236Z,19.80
2018-05-17T14:33:00.712Z,16.00
2018-05-17T14:35:28.219Z,17.93
2018-05-17T14:37:55.716Z,17.00
2018-05-17T14:40:23.201Z,13.87
2018-05-17T14:42:50.685Z,14.93
2018-05-17T14:45:18.162Z,15.30
2018-05-17T14:47:45.648Z,16.50
2018-05-17T14:50:13.120Z,14.20
2018-05-17T14:52:40.612Z,16.52
2018-05-17T14:55:08.088Z,16.80
2018-05-17T14:57:35.601Z,17.10
2018-05-17T15:00:03.074Z,16.87
2018-05-17T15:02:30.547Z,14.23
2018-05-17T15:04:58.043Z,14.43
2018-05-17T15:07:25.519Z,17.37
2018-05-17T15:09:52.996Z,15.20
2018-05-17T15:12:20.465Z,15.27
2018-05-17T15:14:47.943Z,16.25
2018-05-17T15:17:15.412Z,15.60
2018-05-17T15:19:42.889Z,16.57
2018-05-17T15:22:10.435Z,16.90
2018-05-17T15:24:37.970Z,17.00
2018-05-17T15:27:05.416Z,18.07
2018-05-17T15:29:32.896Z,15.63
2018-05-17T15:32:00.392Z,16.03
2018-05-17T15:34:27.853Z,16.97
2018-05-17T15:36:55.327Z,20.23
2018-05-17T15:39:22.812Z,23.63
2018-05-17T15:41:50.276Z,17.43
2018-05-17T15:44:17.748Z,19.03
2018-05-17T15:46:45.217Z,19.73
2018-05-17T15:49:12.680Z,20.20
2018-05-17T15:51:40.174Z,18.97
2018-05-17T15:54:07.658Z,19.33
2018-05-17T15:56:35.137Z,19.65
2018-05-17T15:59:02.615Z,21.77
2018-05-17T16:01:30.072Z,19.50
2018-05-17T16:03:57.562Z,19.83
2018-05-17T16:06:25.507Z,20.53
2018-05-17T16:08:53.108Z,19.23
2018-05-17T16:11:20.567Z,20.60
2018-05-17T16:13:48.027Z,24.40
2018-05-17T16:16:15.512Z,20.93
2018-05-17T16:18:43.002Z,21.67
2018-05-17T16:21:10.467Z,24.35
2018-05-17T16:23:37.948Z,21.80
2018-05-17T16:26:05.417Z,23.63
2018-05-17T16:28:32.912Z,22.27
2018-05-17T16:31:00.379Z,23.43
2018-05-17T16:33:27.849Z,23.77
2018-05-17T16:39:25.739Z,22.00
2018-05-17T16:41:53.203Z,24.83
2018-05-17T16:44:20.683Z,32.97
2018-05-17T16:46:48.172Z,26.90
2018-05-17T16:49:15.645Z,32.13
2018-05-17T16:51:43.133Z,31.57
2018-05-17T16:54:10.622Z,32.72
2018-05-17T16:56:38.093Z,38.53
2018-05-17T16:59:05.578Z,28.15
2018-05-17T17:01:33.049Z,26.93
2018-05-17T17:04:00.548Z,24.80
2018-05-17T17:06:28.464Z,24.77
2018-05-17T17:08:55.928Z,24.40
2018-05-17T17:11:23.408Z,20.37
2018-05-17T17:13:50.871Z,25.63
2018-05-17T17:16:18.347Z,21.75
2018-05-17T17:18:45.818Z,23.87
2018-05-17T17:21:13.288Z,23.83
2018-05-17T17:23:40.779Z,23.93
2018-05-17T17:26:08.247Z,19.73
2018-05-17T17:28:35.742Z,20.70
2018-05-17T17:31:03.215Z,19.87
2018-05-17T17:33:30.847Z,21.27
2018-05-17T17:35:58.315Z,19.37
2018-05-17T17:38:25.830Z,18.10
2018-05-17T17:40:53.300Z,16.73
2018-05-17T17:43:20.766Z,16.90
2018-05-17T17:45:48.247Z,16.87
2018-05-17T17:48:15.716Z,18.70
2018-05-17T17:50:43.210Z,15.87
2018-05-17T17:53:10.698Z,15.00
2018-05-17T17:55:38.243Z,14.83
2018-05-17T17:58:06.216Z,17.80
2018-05-17T18:00:33.683Z,13.57
2018-05-17T18:03:01.175Z,14.07
2018-05-17T18:05:29.593Z,14.67
2018-05-17T18:07:57.319Z,12.53
2018-05-17T18:10:24.818Z,14.95
2018-05-17T18:12:52.287Z,15.90
2018-05-17T18:15:19.863Z,14.90
2018-05-17T18:17:47.505Z,14.10
2018-05-17T18:20:15.118Z,14.67
2018-05-17T18:22:44.211Z,18.70
2018-05-17T18:25:12.347Z,25.90
2018-05-17T18:27:40.384Z,17.13
2018-05-17T18:30:07.987Z,22.50
2018-05-17T18:32:35.896Z,16.77
2018-05-17T18:35:03.357Z,19.07
2018-05-17T18:37:30.842Z,18.40
2018-05-17T18:39:58.546Z,19.90
2018-05-17T18:42:26.030Z,18.10
2018-05-17T18:44:53.737Z,19.20
2018-05-17T18:47:21.315Z,19.20
2018-05-17T18:49:48.995Z,20.53
2018-05-17T18:52:16.543Z,19.20
2018-05-17T18:54:44.329Z,21.03
2018-05-17T18:57:12.107Z,20.83
2018-05-17T18:59:39.863Z,19.50
2018-05-17T19:02:07.768Z,20.10
2018-05-17T19:04:35.260Z,19.27
2018-05-17T19:07:03.208Z,18.60
2018-05-17T19:09:30.887Z,20.23
2018-05-17T19:11:58.363Z,20.87
2018-05-17T19:14:25.834Z,17.77
2018-05-17T19:16:53.328Z,21.93
2018-05-17T19:19:20.795Z,22.07
2018-05-17T19:21:48.439Z,20.80
2018-05-17T19:24:15.904Z,19.00
2018-05-17T19:26:43.372Z,18.97
2018-05-17T19:29:10.852Z,29.67
2018-05-17T19:31:38.410Z,19.47
2018-05-17T19:34:05.836Z,17.83
2018-05-17T19:36:33.308Z,19.77
2018-05-17T19:39:00.789Z,19.33
2018-05-17T19:41:28.275Z,22.27
2018-05-17T19:43:55.740Z,19.97
2018-05-17T19:46:23.239Z,19.77
2018-05-17T19:48:50.712Z,24.20
2018-05-17T19:51:18.177Z,20.67
2018-05-17T19:53:45.664Z,23.47
2018-05-17T19:56:13.145Z,22.80
2018-05-17T19:58:40.717Z,26.47
2018-05-17T20:01:08.120Z,24.40
2018-05-17T20:03:35.664Z,23.80
2018-05-17T20:06:03.148Z,23.10
2018-05-17T20:08:30.625Z,24.70
2018-05-17T20:10:58.105Z,24.90
2018-05-17T20:13:25.580Z,25.50
2018-05-17T20:15:53.540Z,25.47
2018-05-17T20:18:21.009Z,22.90
2018-05-17T20:20:48.467Z,29.50
2018-05-17T20:23:15.966Z,30.63
2018-05-17T20:25:43.436Z,23.90
2018-05-17T20:28:10.924Z,25.50
2018-05-17T20:30:38.397Z,25.37
2018-05-17T20:33:05.877Z,25.90
2018-05-17T20:35:33.364Z,27.33
2018-05-17T20:38:00.839Z,24.27
2018-05-17T20:40:28.325Z,27.20
2018-05-17T20:42:55.794Z,28.90
2018-05-17T20:45:23.263Z,26.63
2018-05-17T20:47:50.761Z,29.10
2018-05-17T20:50:18.225Z,28.77
2018-05-17T20:52:45.713Z,26.02
2018-05-17T20:55:13.254Z,37.77
2018-05-17T20:57:40.671Z,28.00
2018-05-17T21:00:08.169Z,28.80
2018-05-17T21:02:35.653Z,28.87
2018-05-17T21:05:03.152Z,31.57
2018-05-17T21:07:32.729Z,29.07
2018-05-17T21:10:00.200Z,39.42
2018-05-17T21:12:27.681Z,30.30
2018-05-17T21:14:55.148Z,34.33
2018-05-17T21:17:22.635Z,34.92
2018-05-17T21:19:50.111Z,30.07
2018-05-17T21:22:17.576Z,36.67
2018-05-17T21:24:45.061Z,31.33
2018-05-17T21:27:12.558Z,29.50
2018-05-17T21:29:40.036Z,33.47
2018-05-17T21:32:07.507Z,34.67
2018-05-17T21:34:34.989Z,41.83
2018-05-17T21:37:02.465Z,42.43
2018-05-17T21:39:30.008Z,34.17
2018-05-17T21:41:57.427Z,37.17
2018-05-17T21:44:24.893Z,42.00
2018-05-17T21:46:52.376Z,37.10
2018-05-17T21:49:19.848Z,41.37
2018-05-17T21:51:47.335Z,38.40
2018-05-17T21:54:14.805Z,39.10
2018-05-17T21:56:42.285Z,41.40
2018-05-17T21:59:09.768Z,40.80
2018-05-17T22:01:37.573Z,45.00
2018-05-17T22:04:05.071Z,56.47
2018-05-17T22:06:32.536Z,42.20
2018-05-17T22:09:00.011Z,51.67
2018-05-17T22:11:27.519Z,46.77
2018-05-17T22:13:54.988Z,53.05
2018-05-17T22:16:22.772Z,51.80
2018-05-17T22:18:50.241Z,51.90
2018-05-17T22:21:17.703Z,46.80
2018-05-17T22:23:45.192Z,48.30
2018-05-17T22:26:12.665Z,53.40
2018-05-17T22:28:41.176Z,53.70
2018-05-17T22:31:08.672Z,50.67
2018-05-17T22:33:36.140Z,55.97
2018-05-17T22:36:03.624Z,59.70
2018-05-17T22:38:31.088Z,63.03
2018-05-17T22:40:58.578Z,69.85
2018-05-17T22:43:26.055Z,67.97
2018-05-17T22:45:53.550Z,57.33
2018-05-17T22:48:21.901Z,63.33
2018-05-17T22:50:49.368Z,61.03
2018-05-17T22:53:16.855Z,68.60
2018-05-17T22:55:44.319Z,62.83
2018-05-17T22:58:23.672Z,89.30
2018-05-17T23:00:51.147Z,76.78
2018-05-17T23:03:18.636Z,84.70
2018-05-17T23:05:46.116Z,95.87
2018-05-17T23:08:13.953Z,76.50
2018-05-17T23:10:41.425Z,80.50
2018-05-17T23:13:08.909Z,81.83
2018-05-17T23:15:36.401Z,91.67
2018-05-17T23:18:03.872Z,98.00
2018-05-17T23:20:31.370Z,91.30
2018-05-17T23:22:58.857Z,103.22
2018-05-17T23:25:26.332Z,107.40
2018-05-17T23:27:53.836Z,106.10
2018-05-17T23:30:21.313Z,108.83
2018-05-17T23:32:49.656Z,103.07
2018-05-17T23:35:17.139Z,113.27
2018-05-17T23:37:44.624Z,114.53
2018-05-17T23:40:23.920Z,115.57
2018-05-17T23:42:51.395Z,126.10
2018-05-17T23:45:18.908Z,112.70
2018-05-17T23:47:46.376Z,124.37
2018-05-17T23:50:14.203Z,125.97
2018-05-17T23:52:41.675Z,142.73
2018-05-17T23:55:09.152Z,139.10
2018-05-17T23:57:36.640Z,128.40
